createdAt,value
2018-08-10T00:00:17.997Z,27.80
2018-08-10T00:03:00.511Z,27.80
2018-08-10T00:05:41.669Z,27.70
2018-08-10T00:08:22.151Z,27.70
2018-08-10T00:11:02.720Z,27.70
2018-08-10T00:13:43.247Z,27.70
2018-08-10T00:16:23.943Z,27.80
2018-08-10T00:19:04.549Z,27.80
2018-08-10T00:21:45.192Z,27.90
2018-08-10T00:24:26.528Z,27.90
2018-08-10T00:27:07.089Z,27.90
2018-08-10T00:29:47.643Z,27.90
2018-08-10T00:32:30.624Z,28.00
2018-08-10T00:35:11.426Z,28.00
2018-08-10T00:37:51.877Z,28.00
2018-08-10T00:40:33.380Z,27.90
2018-08-10T00:43:13.931Z,27.90
2018-08-10T00:45:54.484Z,28.00
2018-08-10T00:48:35.474Z,27.80
2018-08-10T00:51:16.634Z,27.60
2018-08-10T00:53:59.516Z,27.30
2018-08-10T00:56:40.024Z,27.30
2018-08-10T00:59:20.616Z,27.10
2018-08-10T01:02:03.887Z,26.90
2018-08-10T01:04:44.248Z,26.80
2018-08-10T01:07:26.764Z,26.80
2018-08-10T01:10:11.381Z,26.90
2018-08-10T01:12:51.999Z,26.70
2018-08-10T01:15:32.972Z,26.60
2018-08-10T01:18:13.503Z,26.60
2018-08-10T01:20:54.080Z,26.60
2018-08-10T01:23:34.716Z,26.50
2018-08-10T01:26:15.424Z,26.60
2018-08-10T01:28:56.529Z,26.70
2018-08-10T01:31:37.194Z,26.60
2018-08-10T01:34:17.659Z,26.80
2018-08-10T01:37:00.556Z,27.00
2018-08-10T01:39:40.908Z,27.00
2018-08-10T01:42:21.367Z,27.00
2018-08-10T01:45:02.551Z,26.90
2018-08-10T01:47:44.156Z,26.90
2018-08-10T01:50:24.708Z,26.90
2018-08-10T01:53:05.267Z,26.80
2018-08-10T01:55:45.869Z,26.90
2018-08-10T01:58:30.553Z,27.10
2018-08-10T02:01:11.199Z,27.20
2018-08-10T02:03:52.419Z,27.30
2018-08-10T02:06:32.987Z,27.40
2018-08-10T02:09:13.552Z,27.40
2018-08-10T02:11:54.076Z,27.40
2018-08-10T02:14:34.694Z,27.40
2018-08-10T02:17:15.352Z,27.50
2018-08-10T02:46:00.013Z,27.00
2018-08-10T02:48:40.548Z,27.00
2018-08-10T02:51:21.158Z,27.10
2018-08-10T02:54:01.636Z,27.00
2018-08-10T02:56:42.143Z,27.00
2018-08-10T02:59:22.665Z,27.00
2018-08-10T03:02:03.144Z,26.90
2018-08-10T03:04:44.000Z,26.90
2018-08-10T03:07:24.363Z,26.90
2018-08-10T03:10:06.136Z,26.90
2018-08-10T03:12:46.647Z,26.90
2018-08-10T03:15:28.784Z,26.80
2018-08-10T03:18:09.175Z,26.70
2018-08-10T03:20:49.728Z,26.60
2018-08-10T03:23:30.891Z,26.60
2018-08-10T03:26:11.428Z,26.60
2018-08-10T03:28:51.752Z,26.60
2018-08-10T03:31:32.101Z,26.70
2018-08-10T03:34:12.595Z,26.80
2018-08-10T03:36:53.162Z,27.00
2018-08-10T03:39:33.643Z,27.10
2018-08-10T03:42:14.182Z,27.10
2018-08-10T03:44:55.744Z,27.20
2018-08-10T03:47:36.522Z,27.30
2018-08-10T03:50:16.939Z,27.30
2018-08-10T03:52:59.792Z,27.40
2018-08-10T03:55:40.299Z,27.40
2018-08-10T03:58:20.576Z,27.40
2018-08-10T04:01:01.522Z,27.40
2018-08-10T04:03:41.875Z,27.50
2018-08-10T04:06:22.344Z,27.50
2018-08-10T04:09:02.835Z,27.50
2018-08-10T04:11:43.897Z,27.50
2018-08-10T04:14:24.401Z,27.60
2018-08-10T04:17:04.761Z,27.60
2018-08-10T04:19:45.348Z,27.60
2018-08-10T04:22:26.849Z,27.60
2018-08-10T04:25:07.463Z,27.60
2018-08-10T04:27:47.909Z,27.60
2018-08-10T04:30:30.061Z,27.50
2018-08-10T04:33:11.016Z,27.50
2018-08-10T04:35:51.369Z,27.60
2018-08-10T04:38:32.793Z,27.60
2018-08-10T04:41:13.139Z,27.60
2018-08-10T04:43:53.704Z,27.70
2018-08-10T04:46:34.236Z,27.70
2018-08-10T04:49:14.756Z,27.70
2018-08-10T04:51:55.719Z,27.70
2018-08-10T04:54:36.149Z,27.70
2018-08-10T04:57:16.812Z,27.70
2018-08-10T04:59:59.880Z,27.80
2018-08-10T05:02:40.334Z,27.80
2018-08-10T05:05:21.607Z,27.80
2018-08-10T05:08:02.007Z,27.70
2018-08-10T05:10:42.592Z,27.60
2018-08-10T05:13:23.065Z,27.60
2018-08-10T05:16:03.635Z,27.40
2018-08-10T05:18:44.110Z,27.40
2018-08-10T05:21:25.803Z,27.40
2018-08-10T05:24:06.220Z,27.40
2018-08-10T05:26:46.679Z,27.40
2018-08-10T05:29:28.711Z,27.30
2018-08-10T05:32:09.266Z,27.40
2018-08-10T05:34:49.823Z,27.40
2018-08-10T05:37:31.651Z,27.50
2018-08-10T05:40:12.060Z,27.50
2018-08-10T05:42:52.569Z,27.50
2018-08-10T05:45:33.035Z,27.50
2018-08-10T05:48:13.579Z,27.60
2018-08-10T05:50:54.091Z,27.70
2018-08-10T05:53:34.547Z,27.80
2018-08-10T05:56:15.185Z,27.80
2018-08-10T05:58:56.643Z,27.90
2018-08-10T06:01:37.044Z,27.90
2018-08-10T06:04:17.416Z,28.00
2018-08-10T06:06:59.777Z,28.00
2018-08-10T06:09:40.052Z,28.10
2018-08-10T06:12:20.354Z,28.10
2018-08-10T06:15:01.638Z,28.10
2018-08-10T06:17:42.320Z,28.20
2018-08-10T06:20:22.720Z,28.20
2018-08-10T06:23:03.243Z,28.20
2018-08-10T06:25:43.844Z,28.30
2018-08-10T06:28:25.978Z,28.30
2018-08-10T06:31:06.567Z,28.40
2018-08-10T06:33:47.237Z,28.40
2018-08-10T06:36:30.069Z,28.50
2018-08-10T06:39:11.219Z,28.50
2018-08-10T06:41:51.636Z,28.50
2018-08-10T06:44:32.212Z,28.60
2018-08-10T06:47:12.829Z,28.60
2018-08-10T06:49:53.242Z,28.70
2018-08-10T06:52:33.756Z,28.80
2018-08-10T06:55:14.199Z,28.80
2018-08-10T06:57:55.785Z,28.90
2018-08-10T07:00:37.477Z,28.90
2018-08-10T07:03:18.065Z,28.90
2018-08-10T07:06:02.397Z,29.20
2018-08-10T07:08:42.949Z,29.30
2018-08-10T07:11:23.532Z,29.60
2018-08-10T07:14:04.031Z,30.00
2018-08-10T07:16:44.748Z,30.20
2018-08-10T07:19:26.439Z,30.50
2018-08-10T07:22:07.216Z,30.60
2018-08-10T07:24:47.857Z,30.30
2018-08-10T07:27:30.620Z,30.30
2018-08-10T07:30:11.820Z,30.30
2018-08-10T07:32:52.444Z,30.50
2018-08-10T07:35:32.952Z,30.90
2018-08-10T07:38:13.403Z,30.90
2018-08-10T07:40:54.265Z,31.20
2018-08-10T07:43:34.723Z,31.40
2018-08-10T07:46:15.264Z,31.70
2018-08-10T07:48:57.040Z,31.80
2018-08-10T07:51:37.597Z,32.00
2018-08-10T07:54:18.112Z,32.20
2018-08-10T07:57:00.287Z,32.40
2018-08-10T07:59:40.783Z,32.10
2018-08-10T08:02:21.356Z,32.00
2018-08-10T08:05:01.810Z,32.30
2018-08-10T08:07:42.363Z,32.80
2018-08-10T08:10:23.064Z,33.00
2018-08-10T08:13:03.700Z,33.20
2018-08-10T08:15:44.191Z,33.30
2018-08-10T08:18:26.212Z,33.20
2018-08-10T08:21:08.785Z,33.40
2018-08-10T08:23:49.278Z,33.40
2018-08-10T08:26:30.709Z,33.20
2018-08-10T08:29:11.136Z,32.80
2018-08-10T08:31:51.730Z,32.80
2018-08-10T08:34:32.214Z,32.70
2018-08-10T08:37:12.984Z,32.70
2018-08-10T08:40:30.817Z,32.80
2018-08-10T08:43:11.231Z,32.40
2018-08-10T08:45:59.298Z,32.20
2018-08-10T08:48:42.347Z,32.00
2018-08-10T08:51:26.152Z,31.90
2018-08-10T08:56:26.928Z,31.90
2018-08-10T08:59:07.338Z,32.10
2018-08-10T09:01:47.878Z,32.00
2018-08-10T09:05:05.299Z,31.90
2018-08-10T09:07:45.858Z,31.20
2018-08-10T09:10:28.965Z,30.80
2018-08-10T09:13:09.355Z,30.60
2018-08-10T09:15:49.850Z,30.80
2018-08-10T09:18:31.271Z,30.70
2018-08-10T09:21:11.675Z,30.90
2018-08-10T09:23:52.054Z,31.30
2018-08-10T09:26:32.548Z,31.00
2018-08-10T09:29:13.175Z,31.10
2018-08-10T09:31:53.836Z,30.80
2018-08-10T09:34:34.452Z,30.80
2018-08-10T09:37:14.982Z,30.90
2018-08-10T09:40:00.706Z,30.70
2018-08-10T09:42:41.145Z,30.40
2018-08-10T09:45:21.739Z,30.20
2018-08-10T09:48:02.261Z,30.30
2018-08-10T09:50:43.331Z,30.30
2018-08-10T09:53:23.950Z,29.90
2018-08-10T09:56:04.724Z,29.70
2018-08-10T09:58:45.293Z,29.60
2018-08-10T10:01:27.483Z,29.50
2018-08-10T10:04:08.499Z,29.50
2018-08-10T10:06:49.137Z,29.30
2018-08-10T10:09:31.680Z,29.30
2018-08-10T10:12:12.189Z,29.20
2018-08-10T10:14:52.796Z,29.20
2018-08-10T10:17:33.558Z,29.00
2018-08-10T10:20:14.494Z,29.00
2018-08-10T10:22:56.217Z,29.10
2018-08-10T10:25:36.695Z,29.10
2018-08-10T10:28:17.407Z,29.20
2018-08-10T10:31:00.393Z,29.50
2018-08-10T10:33:40.981Z,30.00
2018-08-10T10:36:21.587Z,30.30
2018-08-10T10:39:02.783Z,30.40
2018-08-10T10:41:43.464Z,30.40
2018-08-10T10:44:23.999Z,30.40
2018-08-10T10:47:05.001Z,30.60
2018-08-10T10:49:45.951Z,30.90
2018-08-10T10:52:29.696Z,31.20
2018-08-10T10:55:10.492Z,31.30
2018-08-10T10:57:51.134Z,31.40
2018-08-10T11:00:32.673Z,31.20
2018-08-10T11:03:14.519Z,31.10
2018-08-10T11:05:56.404Z,31.10
2018-08-10T11:08:36.871Z,31.00
2018-08-10T11:11:17.418Z,30.90
2018-08-10T11:14:00.608Z,31.00
2018-08-10T11:16:41.257Z,30.70
2018-08-10T11:19:21.847Z,30.30
2018-08-10T11:22:02.432Z,30.30
2018-08-10T11:24:42.864Z,30.20
2018-08-10T11:27:23.653Z,30.00
2018-08-10T11:30:05.406Z,30.10
2018-08-10T11:32:46.201Z,30.10
2018-08-10T11:35:29.760Z,30.00
2018-08-10T11:38:10.314Z,29.90
2018-08-10T11:40:50.883Z,30.00
2018-08-10T11:43:32.607Z,30.10
2018-08-10T11:46:15.229Z,30.30
2018-08-10T11:49:00.009Z,30.40
2018-08-10T11:51:40.447Z,30.10
2018-08-10T11:54:21.031Z,29.90
2018-08-10T11:57:03.022Z,29.80
2018-08-10T11:59:43.704Z,29.60
2018-08-10T12:02:24.913Z,29.40
2018-08-10T12:05:08.033Z,29.30
2018-08-10T12:07:48.561Z,29.20
2018-08-10T12:10:31.424Z,29.10
2018-08-10T12:13:12.108Z,29.00
2018-08-10T12:15:52.449Z,28.90
2018-08-10T12:18:33.064Z,28.70
2018-08-10T12:21:13.866Z,28.60
2018-08-10T12:23:55.073Z,28.50
2018-08-10T12:26:35.567Z,28.40
2018-08-10T12:29:16.063Z,28.20
2018-08-10T12:31:57.612Z,27.90
2018-08-10T12:34:38.013Z,27.70
2018-08-10T12:37:18.555Z,27.60
2018-08-10T12:40:00.555Z,27.40
2018-08-10T12:42:41.036Z,27.20
2018-08-10T12:45:21.472Z,26.90
2018-08-10T12:48:02.448Z,26.80
2018-08-10T12:50:43.072Z,26.70
2018-08-10T12:53:23.505Z,26.60
2018-08-10T12:56:04.336Z,26.60
2018-08-10T12:58:44.875Z,26.60
2018-08-10T13:01:26.541Z,26.40
2018-08-10T13:04:07.251Z,26.40
2018-08-10T13:06:47.881Z,26.40
2018-08-10T13:09:30.651Z,26.50
2018-08-10T13:12:11.200Z,26.40
2018-08-10T13:14:51.857Z,26.30
2018-08-10T13:17:32.425Z,26.10
2018-08-10T13:20:14.671Z,25.90
2018-08-10T13:22:55.227Z,25.80
2018-08-10T13:25:35.740Z,25.80
2018-08-10T13:28:16.232Z,25.80
2018-08-10T13:30:58.156Z,25.80
2018-08-10T13:33:38.652Z,25.80
2018-08-10T13:36:19.224Z,25.80
2018-08-10T13:39:00.709Z,25.80
2018-08-10T13:41:42.160Z,25.60
2018-08-10T13:44:22.655Z,25.50
2018-08-10T13:47:03.197Z,25.40
2018-08-10T13:49:43.575Z,25.40
2018-08-10T13:52:24.300Z,25.30
2018-08-10T13:55:05.231Z,25.20
2018-08-10T13:57:46.672Z,25.10
2018-08-10T14:00:29.887Z,25.00
2018-08-10T14:03:10.340Z,24.90
2018-08-10T14:05:50.975Z,24.80
2018-08-10T14:08:32.600Z,24.70
2018-08-10T14:11:13.212Z,24.70
2018-08-10T14:13:53.849Z,24.60
2018-08-10T14:16:34.460Z,24.60
2018-08-10T14:19:14.838Z,24.50
2018-08-10T14:21:56.579Z,24.50
2018-08-10T14:24:37.074Z,24.40
2018-08-10T14:27:17.690Z,24.40
2018-08-10T14:30:00.777Z,24.30
2018-08-10T14:32:43.376Z,24.30
2018-08-10T14:35:24.224Z,24.30
2018-08-10T14:38:04.847Z,24.30
2018-08-10T14:40:45.426Z,24.30
2018-08-10T14:43:26.696Z,24.40
2018-08-10T14:46:07.189Z,24.40
2018-08-10T14:48:47.688Z,24.40
2018-08-10T14:51:30.867Z,24.40
2018-08-10T14:54:11.321Z,24.40
2018-08-10T14:56:51.923Z,24.40
2018-08-10T14:59:32.458Z,24.40
2018-08-10T15:02:12.880Z,24.40
2018-08-10T15:04:53.749Z,24.40
2018-08-10T15:07:34.317Z,24.40
2018-08-10T15:10:15.980Z,24.30
2018-08-10T15:12:57.760Z,24.30
2018-08-10T15:15:39.079Z,24.30
2018-08-10T15:18:19.598Z,24.20
2018-08-10T15:21:01.242Z,24.20
2018-08-10T15:23:41.755Z,24.20
2018-08-10T15:26:22.705Z,24.20
2018-08-10T15:29:07.362Z,24.10
2018-08-10T15:31:47.956Z,24.10
2018-08-10T15:34:30.888Z,24.10
2018-08-10T15:37:11.398Z,24.10
2018-08-10T15:39:52.624Z,24.00
2018-08-10T15:42:33.105Z,24.00
2018-08-10T15:45:14.904Z,24.00
2018-08-10T15:47:55.468Z,24.00
2018-08-10T15:50:36.015Z,24.00
2018-08-10T15:53:17.394Z,24.00
2018-08-10T15:55:58.728Z,24.00
2018-08-10T15:58:39.255Z,23.90
2018-08-10T16:01:19.840Z,23.80
2018-08-10T16:04:01.618Z,23.80
2018-08-10T16:06:42.181Z,23.80
2018-08-10T16:09:22.882Z,23.80
2018-08-10T16:12:03.436Z,23.80
2018-08-10T16:14:44.039Z,23.70
2018-08-10T16:17:24.644Z,23.60
2018-08-10T16:20:06.884Z,23.50
2018-08-10T16:22:47.396Z,23.50
2018-08-10T16:25:30.091Z,23.50
2018-08-10T16:28:10.693Z,23.50
2018-08-10T16:30:51.236Z,23.30
2018-08-10T16:33:32.913Z,23.30
2018-08-10T16:36:13.399Z,23.30
2018-08-10T16:38:54.009Z,23.30
2018-08-10T16:41:34.423Z,23.30
2018-08-10T16:44:14.966Z,23.30
2018-08-10T16:46:55.583Z,23.30
2018-08-10T16:49:37.964Z,23.30
2018-08-10T16:52:18.669Z,23.30
2018-08-10T16:55:01.488Z,23.30
2018-08-10T16:57:42.921Z,23.30
2018-08-10T17:00:23.818Z,23.40
2018-08-10T17:03:04.203Z,23.40
2018-08-10T17:05:44.830Z,23.40
2018-08-10T17:09:11.959Z,23.50
2018-08-10T17:11:53.234Z,23.50
2018-08-10T17:14:33.836Z,23.50
2018-08-10T17:17:14.416Z,23.50
2018-08-10T17:19:54.961Z,23.50
2018-08-10T17:22:36.256Z,23.40
2018-08-10T17:25:20.677Z,23.40
2018-08-10T17:28:02.274Z,23.40
2018-08-10T17:30:43.676Z,23.30
2018-08-10T17:33:24.331Z,23.30
2018-08-10T17:36:04.781Z,23.30
2018-08-10T17:38:45.469Z,23.30
2018-08-10T17:41:26.117Z,23.20
2018-08-10T17:44:06.756Z,23.20
2018-08-10T17:46:47.424Z,23.20
2018-08-10T17:49:29.297Z,23.20
2018-08-10T17:52:09.985Z,23.20
2018-08-10T17:54:50.548Z,23.20
2018-08-10T17:57:32.321Z,23.10
2018-08-10T18:00:16.255Z,23.00
2018-08-10T18:02:57.965Z,23.00
2018-08-10T18:05:38.493Z,22.90
2018-08-10T18:08:19.122Z,22.90
2018-08-10T18:11:01.605Z,22.90
2018-08-10T18:13:42.209Z,22.80
2018-08-10T18:16:22.780Z,22.80
2018-08-10T18:19:03.397Z,22.80
2018-08-10T18:21:44.072Z,22.80
2018-08-10T18:24:24.531Z,22.80
2018-08-10T18:27:04.995Z,22.80
2018-08-10T18:29:45.571Z,22.70
2018-08-10T18:32:26.092Z,22.70
2018-08-10T18:35:07.796Z,22.70
2018-08-10T18:37:49.021Z,22.60
2018-08-10T18:40:34.512Z,22.60
2018-08-10T18:43:16.141Z,22.60
2018-08-10T18:45:57.696Z,22.60
2018-08-10T18:48:38.489Z,22.50
2018-08-10T18:51:19.096Z,22.50
2018-08-10T18:54:01.887Z,22.40
2018-08-10T18:56:42.443Z,22.30
2018-08-10T18:59:23.002Z,22.40
2018-08-10T19:02:03.634Z,22.40
2018-08-10T19:04:44.124Z,22.40
2018-08-10T19:07:24.872Z,22.40
2018-08-10T19:10:06.309Z,22.40
2018-08-10T19:12:46.980Z,22.40
2018-08-10T19:15:29.012Z,22.30
2018-08-10T19:18:09.504Z,22.30
2018-08-10T19:20:50.065Z,22.40
2018-08-10T19:23:31.885Z,22.30
2018-08-10T19:26:12.269Z,22.30
2018-08-10T19:28:52.888Z,22.30
2018-08-10T19:31:34.200Z,22.30
2018-08-10T19:34:14.775Z,22.30
2018-08-10T19:36:55.349Z,22.30
2018-08-10T19:39:36.112Z,22.30
2018-08-10T19:42:16.648Z,22.20
2018-08-10T19:44:57.792Z,22.20
2018-08-10T19:47:38.630Z,22.20
2018-08-10T19:50:22.859Z,22.20
2018-08-10T19:53:03.687Z,22.20
2018-08-10T19:55:44.268Z,22.10
2018-08-10T19:58:24.836Z,22.20
2018-08-10T20:01:05.484Z,22.20
2018-08-10T20:03:46.077Z,22.10
2018-08-10T20:06:27.887Z,22.10
2018-08-10T20:09:11.559Z,22.10
2018-08-10T20:11:51.947Z,22.10
2018-08-10T20:14:33.818Z,22.10
2018-08-10T20:17:14.748Z,22.00
2018-08-10T20:19:55.347Z,22.00
2018-08-10T20:22:35.871Z,22.00
2018-08-10T20:25:16.759Z,21.90
2018-08-10T20:27:58.131Z,21.90
2018-08-10T20:30:38.708Z,21.80
2018-08-10T20:33:19.172Z,21.80
2018-08-10T20:36:01.250Z,21.80
2018-08-10T20:38:41.625Z,21.80
2018-08-10T20:41:22.360Z,21.70
2018-08-10T20:44:04.119Z,21.80
2018-08-10T20:46:44.624Z,21.70
2018-08-10T20:49:25.112Z,21.70
2018-08-10T20:52:05.607Z,21.70
2018-08-10T20:54:46.757Z,21.70
2018-08-10T20:57:28.595Z,21.70
2018-08-10T21:00:09.887Z,21.60
2018-08-10T21:02:50.389Z,21.60
2018-08-10T21:05:32.284Z,21.60
2018-08-10T21:08:12.896Z,21.70
2018-08-10T21:10:53.218Z,21.70
2018-08-10T21:13:34.032Z,21.70
2018-08-10T21:16:14.616Z,21.60
2018-08-10T21:18:55.279Z,21.50
2018-08-10T21:21:35.807Z,21.50
2018-08-10T21:24:16.369Z,21.50
2018-08-10T21:26:56.796Z,21.50
2018-08-10T21:29:37.341Z,21.50
2018-08-10T21:32:17.825Z,21.50
2018-08-10T21:34:59.159Z,21.50
2018-08-10T21:37:39.638Z,21.50
2018-08-10T21:40:20.505Z,21.50
2018-08-10T21:43:02.288Z,21.60
2018-08-10T21:45:42.827Z,21.50
2018-08-10T21:48:23.192Z,21.50
2018-08-10T21:51:04.167Z,21.40
2018-08-10T21:53:44.522Z,21.40
2018-08-10T21:56:24.853Z,21.30
2018-08-10T21:59:05.581Z,21.30
2018-08-10T22:01:46.171Z,21.30
2018-08-10T22:04:26.754Z,21.30
2018-08-10T22:07:07.344Z,21.30
2018-08-10T22:09:47.938Z,21.40
2018-08-10T22:12:29.278Z,21.40
2018-08-10T22:15:14.972Z,21.40
2018-08-10T22:18:01.588Z,21.40
2018-08-10T22:20:41.991Z,21.30
2018-08-10T22:23:22.696Z,21.30
2018-08-10T22:26:04.260Z,21.30
2018-08-10T22:28:44.806Z,21.30
2018-08-10T22:31:25.312Z,21.20
2018-08-10T22:34:06.160Z,21.10
2018-08-10T22:36:46.715Z,21.20
2018-08-10T22:39:28.663Z,21.10
2018-08-10T22:42:09.243Z,21.10
2018-08-10T22:44:49.769Z,21.10
2018-08-10T22:47:32.359Z,21.10
2018-08-10T22:50:12.923Z,21.10
2018-08-10T22:52:53.558Z,21.10
2018-08-10T22:55:34.096Z,21.10
2018-08-10T22:58:14.556Z,21.10
2018-08-10T23:00:55.748Z,21.10
2018-08-10T23:03:36.144Z,21.10
2018-08-10T23:06:16.714Z,21.10
2018-08-10T23:08:58.465Z,21.00
2018-08-10T23:11:39.013Z,21.00
2018-08-10T23:14:19.557Z,21.00
2018-08-10T23:17:02.292Z,21.00
2018-08-10T23:19:42.584Z,21.00
2018-08-10T23:22:23.075Z,21.00
2018-08-10T23:25:05.235Z,21.00
2018-08-10T23:27:45.668Z,21.00
2018-08-10T23:30:26.244Z,21.00
2018-08-10T23:33:06.765Z,20.80
2018-08-10T23:35:47.104Z,20.80
2018-08-10T23:38:28.562Z,20.80
2018-08-10T23:41:08.950Z,20.80
2018-08-10T23:43:49.447Z,20.70
2018-08-10T23:46:32.256Z,20.70
2018-08-10T23:49:12.780Z,20.70
2018-08-10T23:51:53.257Z,20.60
2018-08-10T23:54:34.364Z,20.70
2018-08-10T23:57:14.795Z,20.70
2018-08-10T23:59:55.357Z,20.70
